createdAt,value
2017-02-08T00:00:13.955Z,1023.16
2017-02-08T00:01:22.936Z,1023.13
2017-02-08T00:02:31.918Z,1023.09
2017-02-08T00:03:40.906Z,1023.1
2017-02-08T00:04:49.890Z,1023.11
2017-02-08T00:05:58.873Z,1023.1
2017-02-08T00:07:07.861Z,1023.18
2017-02-08T00:08:16.847Z,1023.2
2017-02-08T00:09:26.237Z,1023.16
2017-02-08T00:10:35.224Z,1023.22
2017-02-08T00:11:44.206Z,1023.24
2017-02-08T00:12:53.197Z,1023.32
2017-02-08T00:14:02.193Z,1023.28
2017-02-08T00:15:11.167Z,1023.27
2017-02-08T00:16:20.152Z,1023.29
2017-02-08T00:17:29.177Z,1023.32
2017-02-08T00:18:38.159Z,1023.35
2017-02-08T00:19:47.146Z,1023.31
2017-02-08T00:20:56.141Z,1023.38
2017-02-08T00:22:05.119Z,1023.39
2017-02-08T00:23:14.084Z,1023.43
2017-02-08T00:24:23.064Z,1023.46
2017-02-08T00:25:32.049Z,1023.45
2017-02-08T00:26:41.015Z,1023.45
2017-02-08T00:27:50.004Z,1023.49
2017-02-08T00:28:58.979Z,1023.47
2017-02-08T00:30:07.962Z,1023.42
2017-02-08T00:31:16.949Z,1023.46
2017-02-08T00:32:25.938Z,1023.49
2017-02-08T00:33:34.903Z,1023.48
2017-02-08T00:34:43.896Z,1023.49
2017-02-08T00:35:52.869Z,1023.48
2017-02-08T00:37:01.868Z,1023.48
2017-02-08T00:38:10.844Z,1023.46
2017-02-08T00:39:19.838Z,1023.53
2017-02-08T00:40:28.863Z,1023.48
2017-02-08T00:41:37.842Z,1023.44
2017-02-08T00:42:46.822Z,1023.4
2017-02-08T00:43:55.810Z,1023.47
2017-02-08T00:45:04.790Z,1023.46
2017-02-08T00:46:13.851Z,1023.45
2017-02-08T00:47:22.839Z,1023.48
2017-02-08T00:48:32.234Z,1023.47
2017-02-08T00:49:41.215Z,1023.47
2017-02-08T00:50:50.191Z,1023.52
2017-02-08T00:51:59.176Z,1023.52
2017-02-08T00:53:08.572Z,1023.61
2017-02-08T00:54:17.554Z,1023.56
2017-02-08T00:55:26.562Z,1023.54
2017-02-08T00:56:35.957Z,1023.52
2017-02-08T00:57:44.952Z,1023.59
2017-02-08T00:58:53.930Z,1023.58
2017-02-08T01:00:02.914Z,1023.58
2017-02-08T01:01:11.894Z,1023.59
2017-02-08T01:02:20.879Z,1023.61
2017-02-08T01:03:29.849Z,1023.57
2017-02-08T01:04:38.839Z,1023.63
2017-02-08T01:05:47.830Z,1023.61
2017-02-08T01:06:56.808Z,1023.62
2017-02-08T01:08:05.792Z,1023.63
2017-02-08T01:09:14.781Z,1023.63
2017-02-08T01:10:23.751Z,1023.65
2017-02-08T01:11:32.741Z,1023.67
2017-02-08T01:12:41.717Z,1023.68
2017-02-08T01:13:50.697Z,1023.66
2017-02-08T01:15:00.145Z,1023.65
2017-02-08T01:16:09.132Z,1023.63
2017-02-08T01:17:18.104Z,1023.61
2017-02-08T01:18:27.090Z,1023.62
2017-02-08T01:19:36.069Z,1023.58
2017-02-08T01:20:45.043Z,1023.65
2017-02-08T01:21:54.039Z,1023.67
2017-02-08T01:23:03.020Z,1023.61
2017-02-08T01:24:12.918Z,1023.61
2017-02-08T01:25:21.908Z,1023.67
2017-02-08T01:26:30.883Z,1023.66
2017-02-08T01:27:39.863Z,1023.66
2017-02-08T01:28:48.836Z,1023.66
2017-02-08T01:29:57.817Z,1023.66
2017-02-08T01:31:06.803Z,1023.62
2017-02-08T01:32:15.783Z,1023.65
2017-02-08T01:33:24.750Z,1023.67
2017-02-08T01:34:33.735Z,1023.66
2017-02-08T01:35:43.138Z,1023.63
2017-02-08T01:36:52.131Z,1023.64
2017-02-08T01:38:01.102Z,1023.7
2017-02-08T01:39:10.082Z,1023.63
2017-02-08T01:40:19.055Z,1023.67
2017-02-08T01:41:28.041Z,1023.66
2017-02-08T01:42:37.028Z,1023.66
2017-02-08T01:43:46.011Z,1023.63
2017-02-08T01:44:54.994Z,1023.65
2017-02-08T01:46:03.974Z,1023.64
2017-02-08T01:47:12.964Z,1023.65
2017-02-08T01:48:22.366Z,1023.67
2017-02-08T01:49:31.346Z,1023.65
2017-02-08T01:50:40.340Z,1023.66
2017-02-08T01:51:49.730Z,1023.73
2017-02-08T01:52:58.700Z,1023.68
2017-02-08T01:54:07.685Z,1023.76
2017-02-08T01:55:16.658Z,1023.68
2017-02-08T01:56:25.648Z,1023.68
2017-02-08T01:57:34.625Z,1023.74
2017-02-08T01:58:43.609Z,1023.69
2017-02-08T01:59:52.585Z,1023.71
2017-02-08T02:01:01.633Z,1023.69
2017-02-08T02:02:10.615Z,1023.68
2017-02-08T02:03:19.598Z,1023.7
2017-02-08T02:04:28.993Z,1023.69
2017-02-08T02:05:37.958Z,1023.68
2017-02-08T02:06:46.927Z,1023.7
2017-02-08T02:07:55.920Z,1023.73
2017-02-08T02:09:04.891Z,1023.69
2017-02-08T02:10:13.879Z,1023.67
2017-02-08T02:11:22.854Z,1023.69
2017-02-08T02:12:32.240Z,1023.7
2017-02-08T02:13:41.223Z,1023.71
2017-02-08T02:14:50.204Z,1023.67
2017-02-08T02:15:59.190Z,1023.67
2017-02-08T02:17:08.165Z,1023.74
2017-02-08T02:18:17.153Z,1023.71
2017-02-08T02:19:26.127Z,1023.72
2017-02-08T02:20:35.100Z,1023.73
2017-02-08T02:21:44.084Z,1023.75
2017-02-08T02:22:53.056Z,1023.71
2017-02-08T02:24:02.041Z,1023.7
2017-02-08T02:25:11.013Z,1023.68
2017-02-08T02:26:19.997Z,1023.68
2017-02-08T02:27:28.965Z,1023.68
2017-02-08T02:28:37.951Z,1023.65
2017-02-08T02:29:46.923Z,1023.71
2017-02-08T02:30:56.303Z,1023.71
2017-02-08T02:32:05.290Z,1023.68
2017-02-08T02:33:14.284Z,1023.72
2017-02-08T02:34:23.267Z,1023.75
2017-02-08T02:35:32.260Z,1023.73
2017-02-08T02:36:41.239Z,1023.77
2017-02-08T02:37:50.629Z,1023.78
2017-02-08T02:38:59.597Z,1023.74
2017-02-08T02:40:08.584Z,1023.76
2017-02-08T02:41:17.568Z,1023.77
2017-02-08T02:42:26.951Z,1023.77
2017-02-08T02:43:35.934Z,1023.77
2017-02-08T02:44:44.931Z,1023.81
2017-02-08T02:45:53.905Z,1023.82
2017-02-08T02:47:02.934Z,1023.84
2017-02-08T02:48:11.908Z,1023.86
2017-02-08T02:49:20.884Z,1023.85
2017-02-08T02:50:29.870Z,1023.83
2017-02-08T02:51:38.850Z,1023.83
2017-02-08T02:52:47.841Z,1023.82
2017-02-08T02:53:56.809Z,1023.8
2017-02-08T02:55:05.788Z,1023.8
2017-02-08T02:56:14.764Z,1023.81
2017-02-08T02:57:23.749Z,1023.78
2017-02-08T02:58:32.755Z,1023.75
2017-02-08T02:59:41.739Z,1023.73
2017-02-08T03:00:50.721Z,1023.71
2017-02-08T03:01:59.712Z,1023.77
2017-02-08T03:03:08.692Z,1023.77
2017-02-08T03:04:17.664Z,1023.77
2017-02-08T03:05:27.046Z,1023.74
2017-02-08T03:06:36.036Z,1023.77
2017-02-08T03:07:45.435Z,1023.79
2017-02-08T03:08:55.240Z,1023.8
2017-02-08T03:10:04.247Z,1023.78
2017-02-08T03:11:13.226Z,1023.79
2017-02-08T03:12:22.197Z,1023.75
2017-02-08T03:13:31.180Z,1023.79
2017-02-08T03:14:40.169Z,1023.79
2017-02-08T03:15:49.148Z,1023.81
2017-02-08T03:16:58.125Z,1023.83
2017-02-08T03:18:07.508Z,1023.81
2017-02-08T03:19:16.538Z,1023.83
2017-02-08T03:20:25.517Z,1023.92
2017-02-08T03:21:34.486Z,1023.89
2017-02-08T03:22:43.464Z,1023.93
2017-02-08T03:23:52.440Z,1023.91
2017-02-08T03:25:01.415Z,1023.92
2017-02-08T03:26:10.401Z,1023.94
2017-02-08T03:27:19.389Z,1023.92
2017-02-08T03:28:28.361Z,1023.89
2017-02-08T03:29:37.331Z,1023.93
2017-02-08T03:30:46.313Z,1023.95
2017-02-08T03:31:55.296Z,1023.96
2017-02-08T03:33:04.282Z,1023.97
2017-02-08T03:34:13.669Z,1023.97
2017-02-08T03:35:22.645Z,1023.96
2017-02-08T03:36:32.039Z,1023.94
2017-02-08T03:37:41.015Z,1024.03
2017-02-08T03:38:50.000Z,1024.01
2017-02-08T03:39:58.984Z,1024.03
2017-02-08T03:41:07.967Z,1024.04
2017-02-08T03:42:16.946Z,1024.01
2017-02-08T03:43:26.323Z,1024.02
2017-02-08T03:44:35.307Z,1024.05
2017-02-08T03:45:44.278Z,1024.09
2017-02-08T03:46:53.272Z,1024.07
2017-02-08T03:48:02.248Z,1024.02
2017-02-08T03:49:11.215Z,1024.07
2017-02-08T03:50:20.190Z,1024.05
2017-02-08T03:51:29.173Z,1024.06
2017-02-08T03:52:38.157Z,1024.07
2017-02-08T03:53:47.130Z,1024.09
2017-02-08T03:54:56.106Z,1024.13
2017-02-08T03:56:05.081Z,1024.14
2017-02-08T03:57:14.063Z,1024.12
2017-02-08T03:58:23.051Z,1024.18
2017-02-08T03:59:32.023Z,1024.12
2017-02-08T04:00:41.024Z,1024.2
2017-02-08T04:01:49.995Z,1024.22
2017-02-08T04:02:58.979Z,1024.28
2017-02-08T04:04:07.953Z,1024.23
2017-02-08T04:05:16.942Z,1024.3
2017-02-08T04:06:25.923Z,1024.32
2017-02-08T04:07:34.895Z,1024.33
2017-02-08T04:08:43.874Z,1024.36
2017-02-08T04:09:52.862Z,1024.43
2017-02-08T04:11:01.831Z,1024.38
2017-02-08T04:12:10.811Z,1024.39
2017-02-08T04:13:19.784Z,1024.39
2017-02-08T04:14:28.768Z,1024.44
2017-02-08T04:15:37.742Z,1024.38
2017-02-08T04:16:46.723Z,1024.41
2017-02-08T04:17:55.696Z,1024.36
2017-02-08T04:19:04.681Z,1024.36
2017-02-08T04:20:13.657Z,1024.43
2017-02-08T04:21:22.643Z,1024.44
2017-02-08T04:22:32.042Z,1024.44
2017-02-08T04:23:41.016Z,1024.44
2017-02-08T04:24:50.005Z,1024.48
2017-02-08T04:25:58.991Z,1024.5
2017-02-08T04:27:08.391Z,1024.43
2017-02-08T04:28:17.367Z,1024.43
2017-02-08T04:29:26.357Z,1024.46
2017-02-08T04:30:35.327Z,1024.51
2017-02-08T04:31:44.293Z,1024.5
2017-02-08T04:32:53.697Z,1024.47
2017-02-08T04:34:02.673Z,1024.5
2017-02-08T04:35:11.657Z,1024.51
2017-02-08T04:36:20.633Z,1024.52
2017-02-08T04:37:30.030Z,1024.51
2017-02-08T04:38:39.006Z,1024.54
2017-02-08T04:39:47.980Z,1024.57
2017-02-08T04:40:56.953Z,1024.6
2017-02-08T04:42:05.944Z,1024.63
2017-02-08T04:43:15.343Z,1024.61
2017-02-08T04:44:24.314Z,1024.61
2017-02-08T04:45:33.291Z,1024.63
2017-02-08T04:46:42.272Z,1024.62
2017-02-08T04:47:51.670Z,1024.57
2017-02-08T04:49:00.645Z,1024.63
2017-02-08T04:50:09.628Z,1024.63
2017-02-08T04:51:18.602Z,1024.61
2017-02-08T04:52:28.015Z,1024.65
2017-02-08T04:53:36.995Z,1024.65
2017-02-08T04:54:45.959Z,1024.69
2017-02-08T04:55:55.353Z,1024.68
2017-02-08T04:57:04.335Z,1024.72
2017-02-08T04:58:13.314Z,1024.7
2017-02-08T04:59:22.291Z,1024.69
2017-02-08T05:00:31.269Z,1024.68
2017-02-08T05:01:40.260Z,1024.64
2017-02-08T05:02:49.663Z,1024.69
2017-02-08T05:03:58.653Z,1024.71
2017-02-08T05:05:07.634Z,1024.71
2017-02-08T05:06:16.607Z,1024.78
2017-02-08T05:07:25.586Z,1024.76
2017-02-08T05:08:34.552Z,1024.73
2017-02-08T05:09:43.545Z,1024.73
2017-02-08T05:10:52.524Z,1024.73
2017-02-08T05:12:01.507Z,1024.72
2017-02-08T05:13:10.485Z,1024.77
2017-02-08T05:14:19.473Z,1024.78
2017-02-08T05:15:28.444Z,1024.78
2017-02-08T05:16:37.426Z,1024.8
2017-02-08T05:17:46.411Z,1024.82
2017-02-08T05:18:55.383Z,1024.84
2017-02-08T05:20:04.350Z,1024.86
2017-02-08T05:21:13.334Z,1024.81
2017-02-08T05:22:22.319Z,1024.85
2017-02-08T05:23:31.306Z,1024.83
2017-02-08T05:24:40.285Z,1024.84
2017-02-08T05:25:49.256Z,1024.89
2017-02-08T05:26:58.231Z,1024.87
2017-02-08T05:28:07.228Z,1024.89
2017-02-08T05:29:16.194Z,1024.89
2017-02-08T05:30:25.171Z,1024.94
2017-02-08T05:31:34.559Z,1024.86
2017-02-08T05:32:43.532Z,1024.91
2017-02-08T05:33:52.500Z,1024.87
2017-02-08T05:35:01.483Z,1024.89
2017-02-08T05:36:10.472Z,1024.91
2017-02-08T05:37:19.474Z,1024.92
2017-02-08T05:38:28.455Z,1024.87
2017-02-08T05:39:37.449Z,1024.86
2017-02-08T05:40:46.421Z,1024.91
2017-02-08T05:41:55.406Z,1024.94
2017-02-08T05:43:04.375Z,1024.97
2017-02-08T05:44:13.365Z,1024.92
2017-02-08T05:45:22.347Z,1024.94
2017-02-08T05:46:31.313Z,1024.94
2017-02-08T05:47:40.292Z,1024.95
2017-02-08T05:48:49.280Z,1024.94
2017-02-08T05:49:58.252Z,1024.92
2017-02-08T05:51:07.655Z,1024.95
2017-02-08T05:52:16.629Z,1024.95
2017-02-08T05:53:25.614Z,1024.96
2017-02-08T05:54:34.592Z,1024.99
2017-02-08T05:55:43.587Z,1025.03
2017-02-08T05:56:53.037Z,1025.02
2017-02-08T05:58:02.027Z,1025.09
2017-02-08T05:59:11.432Z,1025.05
2017-02-08T06:00:20.414Z,1025.11
2017-02-08T06:01:29.392Z,1025.12
2017-02-08T06:02:38.370Z,1025.1
2017-02-08T06:03:47.344Z,1025.13
2017-02-08T06:04:56.333Z,1025.12
2017-02-08T06:06:05.340Z,1025.17
2017-02-08T06:07:14.325Z,1025.21
2017-02-08T06:08:23.334Z,1025.2
2017-02-08T06:09:32.318Z,1025.17
2017-02-08T06:10:41.299Z,1025.17
2017-02-08T06:11:50.271Z,1025.16
2017-02-08T06:12:59.250Z,1025.2
2017-02-08T06:14:08.634Z,1025.19
2017-02-08T06:15:17.612Z,1025.22
2017-02-08T06:16:26.595Z,1025.21
2017-02-08T06:17:35.583Z,1025.23
2017-02-08T06:18:44.567Z,1025.28
2017-02-08T06:19:53.545Z,1025.26
2017-02-08T06:21:02.931Z,1025.32
2017-02-08T06:22:11.905Z,1025.34
2017-02-08T06:23:20.892Z,1025.39
2017-02-08T06:24:29.879Z,1025.38
2017-02-08T06:25:39.325Z,1025.37
2017-02-08T06:26:48.309Z,1025.38
2017-02-08T06:27:57.284Z,1025.39
2017-02-08T06:29:06.255Z,1025.43
2017-02-08T06:30:15.238Z,1025.4
2017-02-08T06:31:31.710Z,1025.45
2017-02-08T06:32:40.686Z,1025.41
2017-02-08T06:33:49.670Z,1025.48
2017-02-08T06:34:58.674Z,1025.5
2017-02-08T06:36:07.655Z,1025.52
2017-02-08T06:37:16.632Z,1025.53
2017-02-08T06:38:25.613Z,1025.47
2017-02-08T06:39:34.593Z,1025.54
2017-02-08T06:40:43.567Z,1025.54
2017-02-08T06:41:52.553Z,1025.57
2017-02-08T06:43:01.527Z,1025.52
2017-02-08T06:44:10.510Z,1025.58
2017-02-08T06:45:19.480Z,1025.63
2017-02-08T06:46:28.464Z,1025.6
2017-02-08T06:47:37.448Z,1025.62
2017-02-08T06:48:46.421Z,1025.65
2017-02-08T06:49:55.401Z,1025.6
2017-02-08T06:51:04.372Z,1025.58
2017-02-08T06:52:13.361Z,1025.61
2017-02-08T06:53:22.337Z,1025.59
2017-02-08T06:54:31.323Z,1025.55
2017-02-08T06:55:40.304Z,1025.62
2017-02-08T06:56:49.284Z,1025.61
2017-02-08T06:57:58.259Z,1025.6
2017-02-08T06:59:07.231Z,1025.61
2017-02-08T07:00:16.219Z,1025.65
2017-02-08T07:01:25.203Z,1025.61
2017-02-08T07:02:34.180Z,1025.6
2017-02-08T07:03:43.171Z,1025.66
2017-02-08T07:04:52.153Z,1025.58
2017-02-08T07:06:01.129Z,1025.58
2017-02-08T07:07:10.114Z,1025.6
2017-02-08T07:08:19.520Z,1025.59
2017-02-08T07:09:28.491Z,1025.59
2017-02-08T07:10:37.469Z,1025.62
2017-02-08T07:11:46.857Z,1025.63
2017-02-08T07:12:55.838Z,1025.66
2017-02-08T07:14:04.822Z,1025.67
2017-02-08T07:15:13.808Z,1025.69
2017-02-08T07:16:23.669Z,1025.71
2017-02-08T07:17:32.645Z,1025.77
2017-02-08T07:18:42.088Z,1025.74
2017-02-08T07:19:51.475Z,1025.78
2017-02-08T07:21:00.878Z,1025.78
2017-02-08T07:22:10.284Z,1025.83
2017-02-08T07:23:19.262Z,1025.85
2017-02-08T07:24:28.677Z,1025.8
2017-02-08T07:25:38.063Z,1025.83
2017-02-08T07:26:47.142Z,1025.78
2017-02-08T07:27:56.532Z,1025.8
2017-02-08T07:29:05.756Z,1025.83
2017-02-08T07:30:14.732Z,1025.79
2017-02-08T07:31:23.713Z,1025.79
2017-02-08T07:32:33.135Z,1025.79
2017-02-08T07:33:42.143Z,1025.83
2017-02-08T07:34:51.130Z,1025.81
2017-02-08T07:36:00.114Z,1025.84
2017-02-08T07:37:09.142Z,1025.85
2017-02-08T07:38:18.127Z,1025.9
2017-02-08T07:39:27.140Z,1025.93
2017-02-08T07:40:36.112Z,1025.93
2017-02-08T07:41:45.544Z,1025.97
2017-02-08T07:42:54.515Z,1025.98
2017-02-08T07:44:03.490Z,1025.93
2017-02-08T07:45:12.477Z,1025.92
2017-02-08T07:46:21.458Z,1025.99
2017-02-08T07:47:30.863Z,1025.97
2017-02-08T07:48:39.835Z,1025.98
2017-02-08T07:49:48.833Z,1026.04
2017-02-08T07:50:58.201Z,1026.04
2017-02-08T07:52:07.175Z,1026.01
2017-02-08T07:53:16.157Z,1026.03
2017-02-08T07:54:25.137Z,1026.09
2017-02-08T07:55:34.119Z,1026.06
2017-02-08T07:56:43.104Z,1026.07
2017-02-08T07:57:52.092Z,1026.15
2017-02-08T07:59:01.064Z,1026.11
2017-02-08T08:00:10.054Z,1026.08
2017-02-08T08:01:19.037Z,1026.12
2017-02-08T08:02:28.014Z,1026.08
2017-02-08T08:03:37.413Z,1026.13
2017-02-08T08:04:46.799Z,1026.16
2017-02-08T08:05:55.777Z,1026.19
2017-02-08T08:07:04.758Z,1026.26
2017-02-08T08:08:13.749Z,1026.26
2017-02-08T08:09:22.725Z,1026.29
2017-02-08T08:10:31.716Z,1026.23
2017-02-08T08:11:40.691Z,1026.24
2017-02-08T08:12:49.659Z,1026.27
2017-02-08T08:13:58.652Z,1026.33
2017-02-08T08:15:07.623Z,1026.32
2017-02-08T08:16:16.600Z,1026.35
2017-02-08T08:17:25.589Z,1026.33
2017-02-08T08:18:34.568Z,1026.35
2017-02-08T08:19:43.692Z,1026.33
2017-02-08T08:20:52.669Z,1026.36
2017-02-08T08:22:02.076Z,1026.36
2017-02-08T08:23:11.043Z,1026.35
2017-02-08T08:24:20.042Z,1026.37
2017-02-08T08:25:29.034Z,1026.4
2017-02-08T08:26:38.021Z,1026.4
2017-02-08T08:27:47.002Z,1026.41
2017-02-08T08:28:55.977Z,1026.43
2017-02-08T08:30:04.968Z,1026.44
2017-02-08T08:31:13.942Z,1026.43
2017-02-08T08:32:22.928Z,1026.41
2017-02-08T08:33:31.906Z,1026.41
2017-02-08T08:34:40.895Z,1026.43
2017-02-08T08:35:49.874Z,1026.4
2017-02-08T08:36:58.866Z,1026.41
2017-02-08T08:38:07.843Z,1026.41
2017-02-08T08:39:16.975Z,1026.43
2017-02-08T08:40:25.960Z,1026.42
2017-02-08T08:41:34.947Z,1026.45
2017-02-08T08:42:43.941Z,1026.44
2017-02-08T08:43:52.921Z,1026.4
2017-02-08T08:45:01.915Z,1026.42
2017-02-08T08:46:10.897Z,1026.38
2017-02-08T08:47:19.880Z,1026.47
2017-02-08T08:48:28.900Z,1026.46
2017-02-08T08:49:37.877Z,1026.44
2017-02-08T08:50:46.864Z,1026.45
2017-02-08T08:51:55.847Z,1026.4
2017-02-08T08:53:04.839Z,1026.41
2017-02-08T08:54:13.826Z,1026.4
2017-02-08T08:55:22.795Z,1026.4
2017-02-08T08:56:31.785Z,1026.39
2017-02-08T08:57:40.768Z,1026.43
2017-02-08T08:58:49.763Z,1026.42
2017-02-08T08:59:58.729Z,1026.41
2017-02-08T09:01:07.715Z,1026.36
2017-02-08T09:02:16.699Z,1026.41
2017-02-08T09:03:25.686Z,1026.44
2017-02-08T09:04:34.710Z,1026.45
2017-02-08T09:05:43.706Z,1026.43
2017-02-08T09:06:52.683Z,1026.42
2017-02-08T09:08:01.654Z,1026.42
2017-02-08T09:09:10.650Z,1026.5
2017-02-08T09:10:19.634Z,1026.44
2017-02-08T09:11:28.621Z,1026.45
2017-02-08T09:12:37.605Z,1026.45
2017-02-08T09:13:46.585Z,1026.44
2017-02-08T09:14:55.574Z,1026.46
2017-02-08T09:16:04.566Z,1026.47
2017-02-08T09:17:13.556Z,1026.46
2017-02-08T09:18:22.541Z,1026.47
2017-02-08T09:19:31.949Z,1026.49
2017-02-08T09:20:41.339Z,1026.47
2017-02-08T09:21:50.363Z,1026.51
2017-02-08T09:22:59.360Z,1026.52
2017-02-08T09:24:08.349Z,1026.53
2017-02-08T09:25:17.339Z,1026.49
2017-02-08T09:26:26.331Z,1026.48
2017-02-08T09:27:35.318Z,1026.54
2017-02-08T09:28:44.295Z,1026.5
2017-02-08T09:29:53.292Z,1026.52
2017-02-08T09:31:02.271Z,1026.52
2017-02-08T09:32:11.289Z,1026.53
2017-02-08T09:33:20.291Z,1026.58
2017-02-08T09:34:29.685Z,1026.58
2017-02-08T09:35:38.676Z,1026.6
2017-02-08T09:36:47.655Z,1026.61
2017-02-08T09:37:56.655Z,1026.62
2017-02-08T09:39:05.648Z,1026.62
2017-02-08T09:40:14.728Z,1026.6
2017-02-08T09:41:23.699Z,1026.62
2017-02-08T09:42:33.111Z,1026.61
2017-02-08T09:43:42.101Z,1026.66
2017-02-08T09:44:51.098Z,1026.66
2017-02-08T09:46:00.091Z,1026.68
2017-02-08T09:47:09.078Z,1026.71
2017-02-08T09:48:18.070Z,1026.72
2017-02-08T09:49:27.056Z,1026.73
2017-02-08T09:50:36.047Z,1026.74
2017-02-08T09:51:45.462Z,1026.79
2017-02-08T09:52:54.457Z,1026.78
2017-02-08T09:54:03.449Z,1026.83
2017-02-08T09:55:12.430Z,1026.81
2017-02-08T09:56:21.417Z,1026.8
2017-02-08T09:57:30.400Z,1026.82
2017-02-08T09:58:39.399Z,1026.81
2017-02-08T09:59:48.380Z,1026.8
2017-02-08T10:00:57.372Z,1026.83
2017-02-08T10:02:06.354Z,1026.78
2017-02-08T10:03:15.328Z,1026.82
2017-02-08T10:04:24.316Z,1026.83
2017-02-08T10:05:33.307Z,1026.85
2017-02-08T10:06:42.709Z,1026.86
2017-02-08T10:07:51.703Z,1026.85
2017-02-08T10:09:00.683Z,1026.87
2017-02-08T10:10:09.674Z,1026.85
2017-02-08T10:11:18.668Z,1026.83
2017-02-08T10:12:27.665Z,1026.88
2017-02-08T10:13:36.641Z,1026.87
2017-02-08T10:14:45.631Z,1026.89
2017-02-08T10:15:54.611Z,1026.89
2017-02-08T10:17:03.606Z,1026.89
2017-02-08T10:18:12.592Z,1026.94
2017-02-08T10:19:21.574Z,1026.93
2017-02-08T10:20:30.554Z,1026.96
2017-02-08T10:21:39.554Z,1026.98
2017-02-08T10:22:48.539Z,1027
2017-02-08T10:23:57.528Z,1027.04
2017-02-08T10:25:06.515Z,1027
2017-02-08T10:26:15.486Z,1027.05
2017-02-08T10:27:24.530Z,1027.06
2017-02-08T10:28:33.573Z,1027.05
2017-02-08T10:29:42.559Z,1027.05
2017-02-08T10:30:51.554Z,1027.02
2017-02-08T10:32:00.545Z,1026.76
2017-02-08T10:33:09.527Z,1026.98
2017-02-08T10:34:18.521Z,1027.05
2017-02-08T10:35:27.519Z,1027.06
2017-02-08T10:36:36.501Z,1027.07
2017-02-08T10:37:45.485Z,1027.05
2017-02-08T10:38:54.584Z,1027.1
2017-02-08T10:40:03.564Z,1027.09
2017-02-08T10:41:12.555Z,1027.07
2017-02-08T10:42:21.549Z,1027.05
2017-02-08T10:43:30.536Z,1027.08
2017-02-08T10:44:39.535Z,1027.05
2017-02-08T10:45:48.505Z,1027.03
2017-02-08T10:46:57.491Z,1027.03
2017-02-08T10:48:06.472Z,1027
2017-02-08T10:49:15.472Z,1027.01
2017-02-08T10:50:24.705Z,1027.02
2017-02-08T10:51:34.111Z,1027.05
2017-02-08T10:52:43.510Z,1027.01
2017-02-08T10:53:52.498Z,1027.05
2017-02-08T10:55:01.517Z,1027
2017-02-08T10:56:10.491Z,1027.03
2017-02-08T10:57:19.477Z,1026.98
2017-02-08T10:58:28.463Z,1027
2017-02-08T10:59:37.865Z,1026.97
2017-02-08T11:00:46.843Z,1026.98
2017-02-08T11:01:55.825Z,1027.01
2017-02-08T11:03:04.822Z,1027
2017-02-08T11:04:13.814Z,1026.94
2017-02-08T11:05:22.802Z,1026.97
2017-02-08T11:06:31.781Z,1026.98
2017-02-08T11:07:41.196Z,1026.96
2017-02-08T11:08:50.180Z,1026.98
2017-02-08T11:09:59.177Z,1026.98
2017-02-08T11:11:08.155Z,1026.99
2017-02-08T11:12:17.567Z,1026.95
2017-02-08T11:13:26.560Z,1027
2017-02-08T11:14:35.546Z,1027
2017-02-08T11:15:44.580Z,1027.02
2017-02-08T11:16:53.577Z,1027.01
2017-02-08T11:18:02.560Z,1027
2017-02-08T11:19:11.539Z,1027
2017-02-08T11:20:20.523Z,1027.01
2017-02-08T11:21:29.508Z,1027
2017-02-08T11:22:38.497Z,1027.02
2017-02-08T11:23:47.499Z,1027.08
2017-02-08T11:24:56.478Z,1027.06
2017-02-08T11:26:05.464Z,1027.04
2017-02-08T11:27:14.458Z,1027.07
2017-02-08T11:28:23.444Z,1027.07
2017-02-08T11:29:32.429Z,1027.06
2017-02-08T11:30:41.413Z,1027.08
2017-02-08T11:31:50.808Z,1027.03
2017-02-08T11:32:59.783Z,1027.03
2017-02-08T11:34:08.771Z,1027.08
2017-02-08T11:35:17.757Z,1027.04
2017-02-08T11:36:27.404Z,1027.03
2017-02-08T11:37:36.393Z,1027.04
2017-02-08T11:38:45.384Z,1027.03
2017-02-08T11:39:54.374Z,1027.04
2017-02-08T11:41:03.362Z,1027.05
2017-02-08T11:42:12.371Z,1027.05
2017-02-08T11:43:21.404Z,1026.99
2017-02-08T11:44:30.389Z,1027.01
2017-02-08T11:45:39.369Z,1027
2017-02-08T11:46:48.365Z,1027.03
2017-02-08T11:47:58.432Z,1027.07
2017-02-08T11:49:07.423Z,1027.03
2017-02-08T11:50:16.423Z,1027.01
2017-02-08T11:51:25.406Z,1026.99
2017-02-08T11:52:34.388Z,1027.03
2017-02-08T11:53:43.360Z,1027.05
2017-02-08T11:54:52.406Z,1027.07
2017-02-08T11:56:01.392Z,1027.03
2017-02-08T11:57:10.371Z,1026.97
2017-02-08T11:58:19.362Z,1027.09
2017-02-08T11:59:28.350Z,1027.06
2017-02-08T12:00:37.325Z,1027.08
2017-02-08T12:01:46.308Z,1027.07
2017-02-08T12:02:55.309Z,1027.03
2017-02-08T12:04:04.703Z,1027.06
2017-02-08T12:05:13.907Z,1027.04
2017-02-08T12:06:22.888Z,1027.03
2017-02-08T12:07:31.886Z,1027.03
2017-02-08T12:08:40.910Z,1027.06
2017-02-08T12:09:49.905Z,1027.05
2017-02-08T12:10:58.883Z,1027.08
2017-02-08T12:12:07.919Z,1027.08
2017-02-08T12:13:16.945Z,1027.09
2017-02-08T12:14:25.952Z,1027.07
2017-02-08T12:15:34.954Z,1027.08
2017-02-08T12:16:44.027Z,1027.11
2017-02-08T12:17:53.010Z,1027.1
2017-02-08T12:19:02.000Z,1027.07
2017-02-08T12:20:10.986Z,1027.1
2017-02-08T12:21:19.975Z,1027.07
2017-02-08T12:22:28.962Z,1027.09
2017-02-08T12:23:37.953Z,1027.09
2017-02-08T12:24:46.934Z,1027.09
2017-02-08T12:25:55.932Z,1027.08
2017-02-08T12:27:05.334Z,1027.07
2017-02-08T12:28:14.320Z,1027.05
2017-02-08T12:29:23.301Z,1027.06
2017-02-08T12:30:32.693Z,1027.08
2017-02-08T12:31:41.684Z,1027.06
2017-02-08T12:32:50.709Z,1027.09
2017-02-08T12:33:59.687Z,1027.08
2017-02-08T12:35:08.687Z,1027.06
2017-02-08T12:36:17.676Z,1027.09
2017-02-08T12:37:26.660Z,1027.09
2017-02-08T12:38:35.651Z,1027.09
2017-02-08T12:39:44.681Z,1027.07
2017-02-08T12:40:53.658Z,1027.1
2017-02-08T12:42:03.091Z,1027.09
2017-02-08T12:43:12.084Z,1027.11
2017-02-08T12:44:21.070Z,1027.12
2017-02-08T12:45:30.082Z,1027.09
2017-02-08T12:46:39.477Z,1027.1
2017-02-08T12:47:48.457Z,1027.05
2017-02-08T12:48:57.864Z,1027.08
2017-02-08T12:50:06.853Z,1027.09
2017-02-08T12:51:15.836Z,1027.11
2017-02-08T12:52:24.826Z,1027.07
2017-02-08T12:53:33.818Z,1027.08
2017-02-08T12:54:43.215Z,1027.08
2017-02-08T12:55:52.202Z,1027.08
2017-02-08T12:57:01.198Z,1027.11
2017-02-08T12:58:10.187Z,1027.12
2017-02-08T12:59:19.257Z,1027.12
2017-02-08T13:00:28.611Z,1027.13
2017-02-08T13:01:37.599Z,1027.11
2017-02-08T13:02:46.590Z,1027.13
2017-02-08T13:03:55.582Z,1027.12
2017-02-08T13:05:04.580Z,1027.13
2017-02-08T13:06:13.572Z,1027.17
2017-02-08T13:07:22.567Z,1027.12
2017-02-08T13:08:31.561Z,1027.13
2017-02-08T13:09:40.540Z,1027.17
2017-02-08T13:10:49.528Z,1027.16
2017-02-08T13:11:58.519Z,1027.15
2017-02-08T13:13:07.514Z,1027.13
2017-02-08T13:14:16.508Z,1027.16
2017-02-08T13:15:25.536Z,1027.14
2017-02-08T13:16:34.515Z,1027.13
2017-02-08T13:17:44.320Z,1027.17
2017-02-08T13:18:53.330Z,1027.2
2017-02-08T13:20:02.325Z,1027.18
2017-02-08T13:21:11.328Z,1027.19
2017-02-08T13:22:20.316Z,1027.18
2017-02-08T13:23:29.306Z,1027.2
2017-02-08T13:24:38.300Z,1027.19
2017-02-08T13:25:47.287Z,1027.19
2017-02-08T13:26:56.265Z,1027.18
2017-02-08T13:28:05.683Z,1027.18
2017-02-08T13:29:14.663Z,1027.22
2017-02-08T13:30:23.639Z,1027.19
2017-02-08T13:31:32.629Z,1027.19
2017-02-08T13:32:41.624Z,1027.19
2017-02-08T13:33:50.603Z,1027.19
2017-02-08T13:34:59.595Z,1027.19
2017-02-08T13:36:09.003Z,1027.24
2017-02-08T13:37:17.986Z,1027.22
2017-02-08T13:38:26.971Z,1027.21
2017-02-08T13:39:35.957Z,1027.2
2017-02-08T13:40:44.957Z,1027.21
2017-02-08T13:41:53.964Z,1027.23
2017-02-08T13:43:02.951Z,1027.2
2017-02-08T13:44:11.937Z,1027.22
2017-02-08T13:45:20.918Z,1027.23
2017-02-08T13:46:29.908Z,1027.2
2017-02-08T13:47:38.902Z,1027.22
2017-02-08T13:48:47.888Z,1027.18
2017-02-08T13:49:56.877Z,1027.22
2017-02-08T13:51:05.865Z,1027.22
2017-02-08T13:52:14.851Z,1027.22
2017-02-08T13:53:23.879Z,1027.3
2017-02-08T13:54:32.861Z,1027.23
2017-02-08T13:55:41.852Z,1027.27
2017-02-08T13:56:51.258Z,1027.25
2017-02-08T13:58:00.236Z,1027.25